Terminal Aerodrome Forecast
Issued by NWS Houston/Galveston, TX

Home | Current Version | Previous Version | Text Only | Print | Product List | Glossary On
Versions: 1 2 3 4 5 6 7 8 9 10 11 12 13 14 15 16 17
000
FTUS44 KHGX 232320
TAFCLL
TAF
KCLL 232320Z 2400/2424 16013KT P6SM FEW050
     FM240500 16010KT P6SM FEW250
     FM240900 18009KT P6SM BKN007
     FM241400 19010KT P6SM SCT015
     FM241800 20011KT P6SM VCTS BKN050CB=

USA.gov is the U.S. government's official web portal to all federal, state and local government web resources and services.